Time;durP1;ratioP1;P1;durP2;ratioP2;P2;SDS_P1;SDS_P2;PMS_P1;PMS_P2;Temp;Humidity;BMP_temperature;BMP_pressure;BME280_temperature;BME280_humidity;BME280_pressure;Samples;Min_cycle;Max_cycle;Signal;HPM_P1;HPM_P2
2021/03/12 00:00:42;;;;;;;3.83;1.70;;;11.00;73.50;;;;;;4975164;28;20055;-79
2021/03/12 00:03:19;;;;;;;3.95;1.35;;;11.00;73.50;;;;;;4973901;28;20037;-79
2021/03/12 00:05:49;;;;;;;4.25;1.70;;;11.00;73.60;;;;;;4965159;28;20066;-80
2021/03/12 00:08:15;;;;;;;3.67;1.83;;;11.00;73.50;;;;;;4990586;28;20014;-79
2021/03/12 00:10:41;;;;;;;4.00;1.85;;;10.90;73.50;;;;;;4991369;28;20076;-80
2021/03/12 00:13:08;;;;;;;4.05;1.67;;;10.90;73.60;;;;;;4991654;28;20031;-79
2021/03/12 00:15:34;;;;;;;3.80;2.00;;;10.90;73.60;;;;;;4975554;28;20065;-80
2021/03/12 00:18:00;;;;;;;4.47;2.22;;;10.90;73.60;;;;;;4975325;28;20062;-80
2021/03/12 00:20:33;;;;;;;2.67;1.42;;;10.90;73.60;;;;;;4970746;28;20077;-79
2021/03/12 00:23:00;;;;;;;3.22;1.40;;;10.90;73.60;;;;;;4991698;28;20042;-79
2021/03/12 00:25:35;;;;;;;4.07;1.60;;;10.90;73.60;;;;;;4975033;28;20042;-79
2021/03/12 00:28:02;;;;;;;3.97;1.70;;;10.90;73.70;;;;;;4991117;28;20475;-78
2021/03/12 00:30:28;;;;;;;3.55;1.48;;;10.90;73.60;;;;;;4973786;28;20365;-80
2021/03/12 00:32:54;;;;;;;2.15;1.30;;;10.80;73.60;;;;;;4943185;28;20046;-79
2021/03/12 00:35:19;;;;;;;5.00;1.60;;;10.90;73.60;;;;;;4939923;28;20086;-78
2021/03/12 00:37:45;;;;;;;2.22;1.20;;;10.90;73.60;;;;;;4964718;28;20046;-78
2021/03/12 00:40:17;;;;;;;1.83;1.30;;;10.90;73.70;;;;;;4958717;28;20031;-80
2021/03/12 00:42:44;;;;;;;4.35;1.45;;;10.90;73.80;;;;;;4991006;28;20023;-80
2021/03/12 00:45:14;;;;;;;3.75;1.50;;;10.80;73.70;;;;;;4975434;28;20069;-79
2021/03/12 00:47:45;;;;;;;2.92;1.52;;;10.80;73.70;;;;;;4991077;28;20035;-79
2021/03/12 00:50:12;;;;;;;4.40;1.45;;;10.80;73.70;;;;;;4974969;28;20026;-79
2021/03/12 00:52:39;;;;;;;6.22;1.70;;;10.80;73.80;;;;;;4974767;28;20513;-79
2021/03/12 00:55:06;;;;;;;2.80;1.42;;;10.80;73.80;;;;;;4991600;28;20034;-79
2021/03/12 00:57:40;;;;;;;3.75;1.27;;;10.80;73.80;;;;;;4975817;28;20379;-79
2021/03/12 01:00:07;;;;;;;2.92;1.77;;;10.80;73.80;;;;;;4955903;28;20027;-79
2021/03/12 01:02:37;;;;;;;3.78;1.55;;;10.80;73.80;;;;;;4986836;28;20479;-79
2021/03/12 01:05:05;;;;;;;2.90;1.40;;;10.80;74.40;;;;;;4958897;28;20050;-78
2021/03/12 01:07:31;;;;;;;2.08;1.40;;;10.80;73.80;;;;;;4992020;28;20503;-79
2021/03/12 01:09:57;;;;;;;2.95;1.48;;;10.80;73.80;;;;;;4975322;28;20035;-79
2021/03/12 01:12:23;;;;;;;3.55;1.50;;;10.80;73.80;;;;;;4975133;28;20061;-80
2021/03/12 01:14:50;;;;;;;2.92;1.75;;;10.70;73.80;;;;;;4974409;28;20047;-80
2021/03/12 01:17:17;;;;;;;2.28;1.30;;;10.70;73.80;;;;;;4975282;28;20034;-79
2021/03/12 01:19:43;;;;;;;1.67;1.20;;;10.70;73.80;;;;;;4974474;28;20050;-80
2021/03/12 01:22:10;;;;;;;2.60;1.30;;;10.70;73.80;;;;;;4959562;28;20089;-80
2021/03/12 01:24:37;;;;;;;3.22;1.55;;;10.70;73.80;;;;;;4955266;28;20034;-79
2021/03/12 01:27:07;;;;;;;2.08;1.15;;;10.70;73.80;;;;;;4942037;28;20043;-80
2021/03/12 01:29:33;;;;;;;3.28;1.70;;;10.70;73.80;;;;;;4974744;28;20061;-79
2021/03/12 01:32:04;;;;;;;6.20;1.50;;;10.70;73.80;;;;;;4965282;28;20043;-79
2021/03/12 01:34:35;;;;;;;2.22;1.58;;;10.70;73.80;;;;;;4958661;28;20034;-80
2021/03/12 01:37:02;;;;;;;2.67;1.48;;;10.70;73.80;;;;;;4972556;28;20038;-79
2021/03/12 01:39:34;;;;;;;2.97;1.58;;;10.70;73.80;;;;;;4963955;28;20030;-79
2021/03/12 01:42:00;;;;;;;2.47;1.40;;;10.70;73.90;;;;;;4961927;28;20034;-80
2021/03/12 01:44:31;;;;;;;3.58;1.60;;;10.60;73.80;;;;;;4963593;28;20031;-79
2021/03/12 01:46:57;;;;;;;2.58;1.40;;;10.60;73.80;;;;;;4993718;28;20479;-78
2021/03/12 01:49:25;;;;;;;3.40;1.60;;;10.60;73.80;;;;;;4978358;28;20034;-80
2021/03/12 01:51:51;;;;;;;4.00;1.65;;;10.60;73.80;;;;;;4963006;28;20450;-79
2021/03/12 01:54:17;;;;;;;4.00;1.65;;;10.60;73.80;;;;;;4978475;28;20046;-79
2021/03/12 01:56:46;;;;;;;2.97;1.50;;;10.60;73.80;;;;;;4958679;28;20023;-79
2021/03/12 01:59:26;;;;;;;3.05;1.45;;;10.60;73.80;;;;;;4965772;28;20034;-79
2021/03/12 02:02:00;;;;;;;2.58;1.50;;;10.60;73.80;;;;;;4948271;28;20041;-79
2021/03/12 02:04:42;;;;;;;2.53;1.58;;;10.60;73.90;;;;;;4992957;28;20103;-80
2021/03/12 02:07:14;;;;;;;4.50;2.05;;;10.60;73.90;;;;;;4974397;28;20043;-78
2021/03/12 02:09:48;;;;;;;4.17;1.93;;;10.60;73.90;;;;;;4975898;28;20026;-80
2021/03/12 02:12:23;;;;;;;2.55;1.50;;;10.60;73.90;;;;;;4993905;28;20368;-79
2021/03/12 02:15:09;;;;;;;2.60;1.60;;;10.60;73.90;;;;;;4976928;28;20380;-79
2021/03/12 02:17:45;;;;;;;4.28;2.05;;;10.60;74.00;;;;;;4967233;28;20041;-79
2021/03/12 02:20:51;;;;;;;2.75;1.52;;;10.60;74.00;;;;;;4977041;28;20053;-80
2021/03/12 02:23:39;;;;;;;2.60;1.30;;;10.60;74.10;;;;;;4990266;28;20081;-79
2021/03/12 02:26:14;;;;;;;2.30;1.48;;;10.50;74.00;;;;;;4976892;28;20046;-80
2021/03/12 02:28:41;;;;;;;4.25;1.70;;;10.50;73.90;;;;;;4981034;28;20040;-79
2021/03/12 02:31:10;;;;;;;2.28;1.35;;;10.50;73.90;;;;;;4977569;28;20038;-79
2021/03/12 02:33:41;;;;;;;3.53;1.40;;;10.50;74.00;;;;;;4958210;28;20081;-80
2021/03/12 02:36:15;;;;;;;4.03;1.52;;;10.50;74.00;;;;;;4973333;28;20039;-79
2021/03/12 02:38:50;;;;;;;3.15;1.60;;;10.50;74.00;;;;;;4973462;28;20054;-80
2021/03/12 02:41:19;;;;;;;3.55;1.70;;;10.50;74.00;;;;;;4946382;28;20053;-79
2021/03/12 02:43:50;;;;;;;3.65;1.55;;;10.50;74.00;;;;;;4973590;28;20069;-79
2021/03/12 02:46:23;;;;;;;3.45;1.65;;;10.50;74.00;;;;;;4977207;28;20038;-80
2021/03/12 02:48:50;;;;;;;3.53;1.38;;;10.40;74.00;;;;;;4973470;28;20037;-80
2021/03/12 02:51:17;;;;;;;2.15;1.70;;;10.40;74.00;;;;;;4974781;28;20031;-79
2021/03/12 02:53:45;;;;;;;3.80;1.50;;;10.50;74.00;;;;;;4946731;28;20081;-80
2021/03/12 02:56:21;;;;;;;3.38;1.58;;;10.40;74.00;;;;;;4993124;28;20035;-80
2021/03/12 02:58:50;;;;;;;2.53;1.50;;;10.40;74.00;;;;;;4973551;28;20463;-79
2021/03/12 03:01:28;;;;;;;3.63;1.63;;;10.40;74.00;;;;;;4991643;28;20026;-79
2021/03/12 03:04:09;;;;;;;3.60;1.52;;;10.40;73.90;;;;;;4962596;28;20066;-79
2021/03/12 03:06:57;;;;;;;3.90;1.80;;;10.40;73.90;;;;;;4942465;28;20162;-81
2021/03/12 03:09:24;;;;;;;4.90;1.60;;;10.40;73.90;;;;;;4973653;28;20352;-79
2021/03/12 03:11:51;;;;;;;3.17;1.60;;;10.40;73.90;;;;;;4991244;28;20466;-80
2021/03/12 03:14:18;;;;;;;2.17;1.40;;;10.40;73.90;;;;;;4960766;28;20046;-79
2021/03/12 03:16:45;;;;;;;3.20;1.40;;;10.40;73.90;;;;;;4976048;28;20030;-80
2021/03/12 03:19:14;;;;;;;3.25;1.80;;;10.40;73.90;;;;;;4974133;28;20117;-80
2021/03/12 03:21:42;;;;;;;4.43;2.00;;;10.40;73.90;;;;;;4992414;28;20026;-79
2021/03/12 03:24:08;;;;;;;2.83;1.60;;;10.30;73.90;;;;;;4976103;28;20084;-79
2021/03/12 03:26:36;;;;;;;4.97;1.50;;;10.40;73.90;;;;;;4960048;28;20495;-79
2021/03/12 03:29:03;;;;;;;3.40;1.48;;;10.40;74.00;;;;;;4975901;28;20056;-80
2021/03/12 03:31:29;;;;;;;3.40;1.50;;;10.40;74.00;;;;;;4992886;28;20031;-79
2021/03/12 03:33:55;;;;;;;2.92;1.30;;;10.30;73.90;;;;;;4974509;28;20035;-80
2021/03/12 03:36:22;;;;;;;4.25;1.60;;;10.40;74.00;;;;;;4975885;28;20034;-80
2021/03/12 03:38:48;;;;;;;4.00;1.60;;;10.30;73.90;;;;;;4975936;28;20023;-80
2021/03/12 03:41:16;;;;;;;3.78;1.60;;;10.30;74.50;;;;;;4975636;28;20038;-79
2021/03/12 03:43:49;;;;;;;2.58;1.52;;;10.40;73.90;;;;;;4992291;28;20027;-79
2021/03/12 03:46:20;;;;;;;2.88;1.90;;;10.30;73.90;;;;;;4977079;28;20055;-79
2021/03/12 03:48:49;;;;;;;2.17;1.45;;;10.30;73.90;;;;;;4971854;28;20031;-79
2021/03/12 03:51:24;;;;;;;3.33;1.50;;;10.30;73.90;;;;;;4944999;28;20041;-79
2021/03/12 03:53:52;;;;;;;5.45;1.88;;;10.30;73.80;;;;;;4944460;28;20031;-79
2021/03/12 03:56:18;;;;;;;4.90;1.92;;;10.30;73.90;;;;;;4959905;28;20114;-80
2021/03/12 03:58:47;;;;;;;3.00;1.55;;;10.30;73.90;;;;;;4960226;28;20109;-80
2021/03/12 04:01:15;;;;;;;4.80;1.90;;;10.30;73.90;;;;;;4976056;28;20045;-80
2021/03/12 04:03:46;;;;;;;3.45;1.40;;;10.30;73.90;;;;;;4944335;28;20031;-80
2021/03/12 04:06:12;;;;;;;3.13;1.65;;;10.20;73.80;;;;;;4959586;28;20030;-79
2021/03/12 04:08:41;;;;;;;3.50;1.60;;;10.30;73.90;;;;;;4975190;28;20498;-79
2021/03/12 04:11:09;;;;;;;3.10;1.42;;;10.30;73.90;;;;;;4972620;28;20140;-80
2021/03/12 04:13:37;;;;;;;3.83;1.60;;;10.20;73.90;;;;;;4971659;28;20034;-79
2021/03/12 04:16:03;;;;;;;2.22;1.40;;;10.20;73.90;;;;;;4956341;28;20062;-79
2021/03/12 04:18:31;;;;;;;3.53;1.58;;;10.20;73.90;;;;;;4973263;28;20475;-80
2021/03/12 04:20:58;;;;;;;2.53;1.40;;;10.20;73.90;;;;;;4975409;28;20026;-80
2021/03/12 04:23:25;;;;;;;4.00;1.60;;;10.20;73.90;;;;;;4991954;28;20035;-79
2021/03/12 04:25:52;;;;;;;1.20;1.10;;;10.20;73.90;;;;;;4975350;28;20050;-79
2021/03/12 04:28:20;;;;;;;2.47;1.67;;;10.20;73.90;;;;;;4975039;28;20038;-80
2021/03/12 04:30:47;;;;;;;2.97;1.35;;;10.20;73.90;;;;;;4972924;28;20379;-80
2021/03/12 04:33:16;;;;;;;1.38;1.20;;;10.20;73.90;;;;;;4991335;28;20089;-79
2021/03/12 04:35:47;;;;;;;2.95;1.30;;;10.20;73.90;;;;;;4958538;28;20034;-79
2021/03/12 04:38:16;;;;;;;3.78;1.55;;;10.10;73.80;;;;;;4943886;28;20109;-80
2021/03/12 04:40:43;;;;;;;2.35;1.40;;;10.10;73.80;;;;;;4959174;28;20049;-80
2021/03/12 04:43:09;;;;;;;4.15;1.85;;;10.10;73.80;;;;;;4991056;28;20045;-79
2021/03/12 04:45:36;;;;;;;3.30;1.50;;;10.10;73.80;;;;;;4971551;28;20031;-80
2021/03/12 04:48:02;;;;;;;4.20;1.70;;;10.10;73.80;;;;;;4975254;28;20038;-80
2021/03/12 04:50:31;;;;;;;5.22;1.92;;;10.10;73.80;;;;;;4975114;28;20468;-80
2021/03/12 04:52:59;;;;;;;2.33;1.30;;;10.10;73.80;;;;;;4959486;28;20510;-80
2021/03/12 04:55:28;;;;;;;3.30;1.60;;;10.10;73.80;;;;;;4958293;28;20086;-79
2021/03/12 04:57:55;;;;;;;2.70;1.50;;;10.00;73.70;;;;;;4971237;28;20031;-79
2021/03/12 05:00:22;;;;;;;3.80;1.63;;;10.00;73.70;;;;;;4955616;28;20086;-79
2021/03/12 05:02:55;;;;;;;2.13;1.42;;;10.00;73.80;;;;;;4986508;28;20030;-80
2021/03/12 05:05:23;;;;;;;3.05;1.52;;;10.00;73.70;;;;;;4973977;28;20045;-80
2021/03/12 05:07:49;;;;;;;2.85;1.65;;;10.00;73.70;;;;;;4972129;28;20376;-79
2021/03/12 05:10:22;;;;;;;4.32;1.75;;;9.90;73.70;;;;;;4959823;28;20395;-79
2021/03/12 05:12:48;;;;;;;2.70;1.42;;;9.90;73.70;;;;;;4973381;28;20031;-79
2021/03/12 05:15:15;;;;;;;3.08;1.40;;;9.90;73.70;;;;;;4944666;28;20402;-80
2021/03/12 05:17:41;;;;;;;2.20;1.50;;;9.90;73.70;;;;;;4979277;28;20034;-79
2021/03/12 05:20:08;;;;;;;3.85;1.50;;;9.90;73.70;;;;;;4961644;28;20426;-80
2021/03/12 05:22:34;;;;;;;1.85;1.30;;;9.80;73.70;;;;;;4947038;28;20458;-79
2021/03/12 05:25:00;;;;;;;2.60;1.60;;;9.80;73.70;;;;;;4945941;28;20061;-79
2021/03/12 05:27:26;;;;;;;3.08;1.42;;;9.80;73.70;;;;;;4978810;28;20047;-79
2021/03/12 05:29:52;;;;;;;3.70;1.48;;;9.80;73.70;;;;;;4945765;28;20038;-80
2021/03/12 05:32:18;;;;;;;2.80;1.40;;;9.80;73.70;;;;;;4974872;28;20042;-79
2021/03/12 05:34:44;;;;;;;3.53;1.92;;;9.70;73.70;;;;;;4978007;28;20387;-80
2021/03/12 05:37:14;;;;;;;2.58;1.45;;;9.70;73.60;;;;;;4947600;28;20027;-80
2021/03/12 05:39:43;;;;;;;1.65;1.40;;;9.70;73.70;;;;;;4975177;28;20058;-80
2021/03/12 05:42:12;;;;;;;2.60;1.40;;;9.70;73.70;;;;;;4971068;28;20113;-78
2021/03/12 05:44:43;;;;;;;3.53;1.40;;;9.70;73.70;;;;;;4978261;28;20475;-78
2021/03/12 05:47:09;;;;;;;4.07;1.58;;;9.70;73.70;;;;;;4977888;28;20030;-80
2021/03/12 05:49:36;;;;;;;3.70;1.98;;;9.60;73.70;;;;;;4977541;28;20018;-78
2021/03/12 05:52:03;;;;;;;3.17;1.50;;;9.60;73.70;;;;;;4990790;28;20039;-79
2021/03/12 05:54:29;;;;;;;2.75;1.52;;;9.60;73.70;;;;;;4993684;28;20068;-78
2021/03/12 05:56:57;;;;;;;2.50;1.50;;;9.60;73.70;;;;;;4977559;28;20026;-79
2021/03/12 05:59:24;;;;;;;1.83;1.50;;;9.50;73.60;;;;;;4975608;28;20060;-80
2021/03/12 06:01:52;;;;;;;2.65;1.63;;;9.50;73.70;;;;;;4956258;28;20054;-80
2021/03/12 06:04:18;;;;;;;2.70;1.48;;;9.50;73.70;;;;;;4995009;28;20065;-80
2021/03/12 06:06:45;;;;;;;2.67;1.60;;;9.50;73.80;;;;;;4960741;28;20041;-80
2021/03/12 06:09:13;;;;;;;3.80;1.60;;;9.50;73.70;;;;;;4976362;28;20034;-85
2021/03/12 06:11:39;;;;;;;3.58;1.70;;;9.40;73.70;;;;;;4981118;28;20037;-85
2021/03/12 06:14:06;;;;;;;2.67;1.70;;;9.40;73.70;;;;;;4960367;28;20034;-81
2021/03/12 06:16:48;;;;;;;2.03;1.40;;;9.40;73.80;;;;;;4978853;28;20038;-81
2021/03/12 06:19:15;;;;;;;2.70;1.50;;;9.40;73.80;;;;;;4976498;28;20411;-81
2021/03/12 06:21:45;;;;;;;3.80;1.58;;;9.40;73.70;;;;;;4978203;28;20023;-86
2021/03/12 06:24:27;;;;;;;2.78;1.70;;;9.40;73.70;;;;;;4974979;28;20611;-89
2021/03/12 06:27:28;;;;;;;1.83;1.30;;;9.30;73.70;;;;;;4979127;28;20141;-81
2021/03/12 06:29:59;;;;;;;3.30;1.90;;;9.30;73.80;;;;;;4977933;28;20032;-82
2021/03/12 06:32:53;;;;;;;2.42;1.45;;;9.30;73.70;;;;;;4993725;28;20057;-82
2021/03/12 06:35:45;;;;;;;2.85;1.63;;;9.30;73.80;;;;;;4977975;28;20070;-82
2021/03/12 06:38:26;;;;;;;4.22;1.60;;;9.30;73.70;;;;;;4961987;28;20031;-82
2021/03/12 06:41:01;;;;;;;2.40;1.40;;;9.20;73.70;;;;;;4979126;28;20038;-82
2021/03/12 06:43:36;;;;;;;2.10;1.55;;;9.20;73.80;;;;;;4979155;28;20486;-82
2021/03/12 06:46:03;;;;;;;2.10;1.40;;;9.20;73.80;;;;;;4977176;28;20046;-82
2021/03/12 06:48:59;;;;;;;2.60;1.58;;;9.20;73.80;;;;;;4980375;28;20035;-82
2021/03/12 06:51:56;;;;;;;3.47;1.60;;;9.20;73.90;;;;;;4979743;28;20460;-83
2021/03/12 06:54:24;;;;;;;2.15;1.45;;;9.20;73.90;;;;;;4978001;28;20058;-82
2021/03/12 06:56:56;;;;;;;3.42;1.70;;;9.20;73.80;;;;;;4994212;28;20027;-83
2021/03/12 06:59:32;;;;;;;2.97;1.60;;;9.20;73.80;;;;;;4978536;28;20111;-82
2021/03/12 07:02:09;;;;;;;3.42;1.83;;;9.10;73.80;;;;;;4982317;28;20129;-82
2021/03/12 07:04:55;;;;;;;3.17;1.63;;;9.10;73.80;;;;;;4979223;28;20065;-84
2021/03/12 07:07:41;;;;;;;2.95;1.80;;;9.10;73.90;;;;;;4993376;28;20125;-82
2021/03/12 07:10:33;;;;;;;3.15;1.60;;;9.10;73.80;;;;;;4991154;28;20040;-82
2021/03/12 07:13:12;;;;;;;3.88;1.77;;;9.10;73.90;;;;;;4993097;28;20110;-82
2021/03/12 07:15:39;;;;;;;2.58;1.50;;;9.00;73.90;;;;;;4993204;28;20063;-82
2021/03/12 07:18:16;;;;;;;3.00;1.67;;;9.00;73.90;;;;;;4978266;28;20031;-82
2021/03/12 07:20:46;;;;;;;2.50;1.40;;;9.00;73.90;;;;;;4977415;28;20089;-81
2021/03/12 07:23:20;;;;;;;2.05;1.60;;;9.00;73.90;;;;;;4976715;28;20023;-80
2021/03/12 07:25:48;;;;;;;3.00;1.80;;;9.00;73.90;;;;;;4976462;28;20054;-81
2021/03/12 07:28:16;;;;;;;3.35;1.58;;;9.00;73.90;;;;;;4958057;28;20134;-85
2021/03/12 07:31:05;;;;;;;2.33;1.55;;;9.00;73.90;;;;;;4991854;28;20042;-83
2021/03/12 07:33:35;;;;;;;2.65;1.58;;;9.00;73.90;;;;;;4977289;28;20034;-84
2021/03/12 07:36:04;;;;;;;4.50;2.05;;;9.00;73.90;;;;;;4993555;28;20538;-85
2021/03/12 07:38:45;;;;;;;3.72;1.58;;;9.00;74.00;;;;;;4978320;28;20121;-85
2021/03/12 07:41:19;;;;;;;2.10;1.55;;;9.00;73.90;;;;;;4973549;28;20031;-84
2021/03/12 07:44:06;;;;;;;2.10;1.58;;;9.00;73.90;;;;;;4956838;28;20070;-83
2021/03/12 07:46:51;;;;;;;2.58;1.92;;;9.00;73.90;;;;;;4967873;28;20029;-87
2021/03/12 07:49:32;;;;;;;4.30;2.35;;;9.00;74.00;;;;;;4993566;28;20041;-86
2021/03/12 07:52:05;;;;;;;4.00;1.83;;;9.00;74.00;;;;;;4978502;28;20026;-87
2021/03/12 07:54:35;;;;;;;3.28;1.70;;;8.90;73.90;;;;;;4973163;28;20041;-86
2021/03/12 07:57:10;;;;;;;2.90;1.45;;;9.00;74.10;;;;;;4977464;28;20394;-87
2021/03/12 07:59:48;;;;;;;3.08;1.60;;;8.90;74.00;;;;;;4993289;28;20053;-87
2021/03/12 08:02:54;;;;;;;4.50;1.90;;;9.00;74.10;;;;;;4993233;28;20065;-87
2021/03/12 08:05:41;;;;;;;3.33;1.70;;;9.00;74.10;;;;;;4994155;28;20548;-86
2021/03/12 08:08:34;;;;;;;5.15;1.90;;;8.90;73.90;;;;;;4993526;28;20030;-87
2021/03/12 08:11:34;;;;;;;2.28;1.40;;;8.90;74.00;;;;;;4967737;28;20025;-86
2021/03/12 08:14:09;;;;;;;4.55;1.77;;;8.90;74.00;;;;;;4978447;28;20038;-86
2021/03/12 08:16:58;;;;;;;3.33;1.40;;;8.90;74.00;;;;;;4992689;28;20026;-86
2021/03/12 08:19:34;;;;;;;4.03;1.60;;;8.90;74.10;;;;;;4974736;28;20462;-85
2021/03/12 08:22:27;;;;;;;2.75;1.63;;;9.00;74.20;;;;;;4979137;28;20030;-86
2021/03/12 08:24:58;;;;;;;3.30;1.60;;;8.90;74.10;;;;;;4977583;28;20030;-86
2021/03/12 08:27:39;;;;;;;4.38;1.75;;;9.00;74.10;;;;;;4978162;28;20457;-85
2021/03/12 08:30:25;;;;;;;3.33;1.52;;;9.00;74.10;;;;;;4978884;28;20438;-85
2021/03/12 08:32:56;;;;;;;2.97;1.60;;;9.00;74.10;;;;;;4993141;28;20459;-85
2021/03/12 08:35:46;;;;;;;5.20;1.60;;;9.00;74.10;;;;;;4992392;28;20038;-85
2021/03/12 08:38:35;;;;;;;;;;;9.00;74.10;;;;;;5004368;28;20068;-85
2021/03/12 08:41:22;;;;;;;2.95;1.45;;;9.00;74.10;;;;;;4980117;28;19921;-86
2021/03/12 08:44:13;;;;;;;3.15;1.70;;;9.00;73.90;;;;;;4994119;28;20033;-84
2021/03/12 08:46:59;;;;;;;5.20;1.90;;;9.00;74.10;;;;;;4987050;28;20073;-86
2021/03/12 08:49:29;;;;;;;5.72;1.90;;;9.00;74.20;;;;;;4996653;28;20114;-86
2021/03/12 08:51:55;;;;;;;2.63;1.65;;;9.00;74.20;;;;;;4968260;28;20122;-86
2021/03/12 08:54:29;;;;;;;4.00;1.65;;;9.00;74.30;;;;;;4968003;28;20038;-86
2021/03/12 08:56:57;;;;;;;4.90;2.58;;;9.10;74.30;;;;;;4982966;28;20057;-87
2021/03/12 08:59:28;;;;;;;4.50;1.75;;;9.10;74.30;;;;;;4984384;28;20061;-85
2021/03/12 09:02:05;;;;;;;3.00;1.63;;;9.10;74.30;;;;;;4983064;28;20039;-85
2021/03/12 09:04:50;;;;;;;2.95;1.50;;;9.10;74.30;;;;;;4960684;28;20039;-84
2021/03/12 09:07:56;;;;;;;3.78;1.58;;;9.10;74.20;;;;;;4976227;28;20034;-87
2021/03/12 09:10:42;;;;;;;3.60;1.60;;;9.20;74.30;;;;;;4972241;28;20390;-84
2021/03/12 09:13:31;;;;;;;2.97;1.75;;;9.20;74.20;;;;;;4981834;28;20023;-84
2021/03/12 09:16:01;;;;;;;4.13;1.88;;;9.20;74.30;;;;;;4976733;28;20042;-84
2021/03/12 09:18:28;;;;;;;3.35;1.60;;;9.30;74.30;;;;;;4979857;28;20034;-84
2021/03/12 09:20:56;;;;;;;3.38;1.75;;;9.30;74.30;;;;;;4980049;28;20030;-84
2021/03/12 09:23:46;;;;;;;6.30;2.17;;;9.30;74.30;;;;;;4980262;28;20034;-84
2021/03/12 09:26:21;;;;;;;2.90;1.70;;;9.30;74.40;;;;;;4995561;28;20065;-85
2021/03/12 09:28:58;;;;;;;5.43;2.42;;;9.40;74.20;;;;;;4995830;28;20058;-84
2021/03/12 09:31:30;;;;;;;5.05;1.88;;;9.50;74.20;;;;;;4979913;28;20034;-83
2021/03/12 09:34:05;;;;;;;4.38;2.00;;;9.50;74.30;;;;;;4995978;28;20034;-85
2021/03/12 09:36:42;;;;;;;4.38;1.80;;;9.60;74.20;;;;;;4995988;28;20093;-85
2021/03/12 09:39:24;;;;;;;5.83;1.97;;;9.60;74.20;;;;;;4996243;28;20062;-84
2021/03/12 09:42:07;;;;;;;2.88;1.75;;;9.60;74.10;;;;;;4976236;28;20317;-84
2021/03/12 09:44:39;;;;;;;4.55;2.10;;;9.70;74.20;;;;;;4994128;28;20546;-84
2021/03/12 09:47:12;;;;;;;4.30;2.10;;;9.70;74.10;;;;;;4950915;28;20034;-84
2021/03/12 09:49:44;;;;;;;4.30;1.50;;;9.70;74.10;;;;;;4995448;28;20053;-84
2021/03/12 09:52:18;;;;;;;4.55;1.73;;;9.80;74.10;;;;;;4980220;28;20489;-84
2021/03/12 09:54:51;;;;;;;4.00;2.05;;;9.80;74.10;;;;;;4979913;28;20404;-84
2021/03/12 09:57:21;;;;;;;4.95;1.77;;;9.90;74.10;;;;;;4947688;28;20069;-84
2021/03/12 09:59:51;;;;;;;6.25;2.50;;;9.90;74.10;;;;;;4995010;28;20023;-84
2021/03/12 10:02:58;;;;;;;4.28;1.90;;;9.90;74.00;;;;;;4983056;28;20039;-84
2021/03/12 10:05:50;;;;;;;4.95;1.92;;;9.90;74.00;;;;;;4975636;28;20038;-84
2021/03/12 10:08:30;;;;;;;5.88;2.22;;;10.00;73.90;;;;;;4980885;28;20482;-83
2021/03/12 10:11:09;;;;;;;4.40;1.88;;;10.10;74.00;;;;;;4980789;28;20097;-85
2021/03/12 10:13:36;;;;;;;3.17;1.63;;;10.10;74.00;;;;;;4979060;28;20125;-84
2021/03/12 10:16:12;;;;;;;4.43;2.15;;;10.10;74.00;;;;;;4965371;28;20085;-87
2021/03/12 10:19:01;;;;;;;4.57;2.22;;;10.10;74.00;;;;;;4969501;28;20042;-85
2021/03/12 10:21:27;;;;;;;5.45;2.72;;;10.20;74.10;;;;;;4962965;28;20499;-86
2021/03/12 10:23:53;;;;;;;3.88;1.60;;;10.20;74.00;;;;;;4994965;28;20027;-85
2021/03/12 10:26:23;;;;;;;4.05;2.05;;;10.20;74.00;;;;;;4978467;28;20093;-85
2021/03/12 10:28:48;;;;;;;4.65;1.88;;;10.20;74.00;;;;;;4995151;28;20030;-82
2021/03/12 10:31:14;;;;;;;4.28;1.75;;;10.30;74.00;;;;;;4977457;28;20033;-80
2021/03/12 10:33:50;;;;;;;4.88;1.90;;;10.30;74.00;;;;;;4977169;28;20034;-80
2021/03/12 10:36:17;;;;;;;4.38;1.80;;;10.30;74.00;;;;;;4976954;28;20058;-80
2021/03/12 10:38:46;;;;;;;5.60;1.90;;;10.30;73.90;;;;;;4976197;28;20030;-81
2021/03/12 10:41:16;;;;;;;5.88;2.03;;;10.40;73.90;;;;;;4977012;28;20026;-81
2021/03/12 10:43:43;;;;;;;5.85;2.22;;;10.40;73.90;;;;;;5000335;28;20042;-80
2021/03/12 10:46:10;;;;;;;4.13;1.50;;;10.40;73.90;;;;;;4978438;28;20185;-80
2021/03/12 10:48:47;;;;;;;4.80;2.00;;;10.40;73.90;;;;;;4978561;28;20371;-80
2021/03/12 10:51:15;;;;;;;5.80;2.03;;;10.50;73.90;;;;;;4976747;28;20184;-82
2021/03/12 10:53:45;;;;;;;4.47;2.00;;;10.50;73.90;;;;;;4977105;28;20061;-84
2021/03/12 10:56:12;;;;;;;4.50;2.10;;;10.50;73.90;;;;;;4977920;28;20034;-83
2021/03/12 10:58:38;;;;;;;3.92;1.85;;;10.50;73.90;;;;;;4978286;28;20463;-85
2021/03/12 11:01:13;;;;;;;5.68;2.08;;;10.50;73.90;;;;;;4978348;28;20031;-84
2021/03/12 11:03:42;;;;;;;3.33;1.65;;;10.50;73.90;;;;;;4981344;28;20026;-85
2021/03/12 11:06:08;;;;;;;3.20;1.80;;;10.50;73.90;;;;;;4977249;28;20398;-85
2021/03/12 11:08:34;;;;;;;5.38;1.90;;;10.50;73.90;;;;;;4993571;28;20038;-84
2021/03/12 11:11:01;;;;;;;5.35;1.70;;;10.60;73.90;;;;;;4977438;28;20034;-85
2021/03/12 11:13:28;;;;;;;5.60;1.88;;;10.60;73.90;;;;;;4992966;28;20018;-84
2021/03/12 11:15:54;;;;;;;4.95;1.83;;;10.60;73.90;;;;;;4993775;28;20073;-84
2021/03/12 11:18:21;;;;;;;3.92;1.83;;;10.60;73.90;;;;;;4976769;28;20062;-84
2021/03/12 11:20:47;;;;;;;4.25;2.10;;;10.60;73.90;;;;;;4977734;28;20030;-84
2021/03/12 11:23:12;;;;;;;4.43;1.80;;;10.60;73.80;;;;;;4993511;28;20068;-84
2021/03/12 11:25:39;;;;;;;4.40;1.80;;;10.60;74.00;;;;;;4962523;28;20458;-85
2021/03/12 11:28:06;;;;;;;4.22;1.80;;;10.60;73.90;;;;;;4993869;28;20479;-84
2021/03/12 11:30:32;;;;;;;4.97;1.80;;;10.60;73.90;;;;;;4975656;28;20026;-80
2021/03/12 11:32:58;;;;;;;2.95;1.60;;;10.70;73.90;;;;;;4992443;28;20376;-80
2021/03/12 11:35:24;;;;;;;4.75;1.90;;;10.60;73.80;;;;;;4976406;28;20045;-80
2021/03/12 11:37:51;;;;;;;6.00;2.65;;;10.70;73.90;;;;;;4956978;28;20121;-80
2021/03/12 11:40:17;;;;;;;2.88;1.50;;;10.70;73.90;;;;;;4992510;28;20030;-81
2021/03/12 11:42:43;;;;;;;4.25;1.67;;;10.70;73.90;;;;;;4992751;28;20033;-80
2021/03/12 11:45:11;;;;;;;3.50;1.80;;;10.70;73.90;;;;;;4993461;28;20031;-80
2021/03/12 11:47:38;;;;;;;4.50;1.60;;;10.70;73.90;;;;;;4991187;28;20113;-80
2021/03/12 11:50:07;;;;;;;4.43;1.77;;;10.70;73.90;;;;;;4992403;28;20042;-80
2021/03/12 11:52:33;;;;;;;5.43;2.08;;;10.70;74.50;;;;;;4975997;28;20034;-80
2021/03/12 11:54:59;;;;;;;3.50;1.98;;;10.70;73.90;;;;;;4988856;28;20399;-81
2021/03/12 11:57:25;;;;;;;2.85;1.80;;;10.80;73.90;;;;;;4984190;28;20033;-81
2021/03/12 11:59:51;;;;;;;5.88;2.00;;;10.80;73.90;;;;;;4990358;28;20085;-80
2021/03/12 12:02:17;;;;;;;3.50;1.88;;;10.80;73.90;;;;;;4991640;28;20662;-80
2021/03/12 12:04:46;;;;;;;5.78;2.00;;;10.80;73.90;;;;;;4968289;28;20053;-80
2021/03/12 12:07:12;;;;;;;3.28;1.70;;;10.80;73.90;;;;;;4975560;28;20035;-80
2021/03/12 12:09:40;;;;;;;3.50;2.08;;;10.90;73.90;;;;;;4975824;28;20069;-80
2021/03/12 12:12:07;;;;;;;4.97;1.90;;;10.90;73.90;;;;;;4992138;28;20360;-80
2021/03/12 12:14:32;;;;;;;2.92;1.60;;;10.90;73.90;;;;;;4976143;28;20129;-80
2021/03/12 12:16:59;;;;;;;4.30;1.85;;;10.90;73.80;;;;;;4966242;28;20555;-83
2021/03/12 12:19:24;;;;;;;4.20;2.05;;;10.90;73.80;;;;;;4975649;28;20042;-81
2021/03/12 12:21:51;;;;;;;3.08;1.70;;;10.90;73.80;;;;;;4959471;28;20385;-80
2021/03/12 12:24:17;;;;;;;2.88;1.70;;;11.00;73.90;;;;;;4991235;28;20034;-79
2021/03/12 12:26:43;;;;;;;5.57;2.00;;;11.00;73.80;;;;;;4992498;28;20466;-81
2021/03/12 12:29:09;;;;;;;3.20;1.88;;;11.00;73.80;;;;;;4991588;28;20521;-81
2021/03/12 12:31:36;;;;;;;3.00;1.60;;;11.00;73.80;;;;;;4975402;28;20116;-79
2021/03/12 12:34:03;;;;;;;3.63;1.80;;;11.10;73.80;;;;;;4991496;28;20123;-80
2021/03/12 12:36:29;;;;;;;5.70;2.10;;;11.10;73.80;;;;;;4991770;28;20038;-80
2021/03/12 12:38:56;;;;;;;4.60;1.95;;;11.10;73.80;;;;;;4974323;28;20088;-80
2021/03/12 12:41:23;;;;;;;3.97;1.70;;;11.10;73.70;;;;;;4991788;28;20018;-79
2021/03/12 12:43:49;;;;;;;3.40;1.73;;;11.10;73.70;;;;;;4991165;28;20035;-80
2021/03/12 12:46:15;;;;;;;5.13;2.00;;;11.20;73.70;;;;;;4974747;28;20092;-79
2021/03/12 12:48:41;;;;;;;3.40;1.67;;;11.20;73.70;;;;;;4991461;28;20058;-79
2021/03/12 12:51:08;;;;;;;4.53;1.73;;;11.20;73.70;;;;;;4975026;28;20030;-79
2021/03/12 12:53:34;;;;;;;3.28;1.75;;;11.20;73.60;;;;;;4975373;28;20030;-79
2021/03/12 12:56:01;;;;;;;2.53;1.55;;;11.20;73.60;;;;;;4990758;28;20042;-79
2021/03/12 12:58:27;;;;;;;3.85;1.70;;;11.30;73.60;;;;;;4991728;28;20072;-78
2021/03/12 13:00:54;;;;;;;2.80;1.52;;;11.30;73.60;;;;;;4971318;28;20109;-79
2021/03/12 13:03:21;;;;;;;3.53;1.80;;;11.30;73.60;;;;;;4990019;28;20367;-79
2021/03/12 13:05:46;;;;;;;4.40;1.95;;;11.30;73.60;;;;;;4991310;28;20070;-78
2021/03/12 13:08:12;;;;;;;3.80;1.50;;;11.30;73.60;;;;;;4991174;28;20159;-78
2021/03/12 13:10:39;;;;;;;4.40;1.70;;;11.40;73.60;;;;;;4942491;28;20029;-78
2021/03/12 13:13:05;;;;;;;4.05;1.65;;;11.40;73.60;;;;;;4996234;28;20154;-78